Latest Weather Observations for Merriwa

IDN60801

Issued at 7:05 am EDT Friday 21 November 2014 (issued every 30 minutes, with the page automatically refreshed every 10 minutes)

About weather observations | Map of weather stations | Latest weather observations for NSW | Other Formats
Station Details ID: 061287 Name: MERRIWA (ROSCOMMON) Lat: -32.19 Lon: 150.17 Height: 375.0 m
Data from the previous 72 hours. | See also: Recent months at Merriwa
Date/Time
EDT
Temp
°C
App
Temp
°C
Dew
Point
Rel
Hum
%
Delta-T
°C
Wind Press
QNH
hPa
Press
MSL
hPa
Rain
since 9 am
mm
Dir
 
Spd
km/h
Gust
km/h
Spd
kts
Gust
kts
21/07:00am 24.4 24.5 10.3 41 7.9 NNW 0 0 0 0 1010.4 1009.2 0.0
21/06:30am 22.6 20.5 8.3 40 7.7 SW 9 13 5 7 1010.1 1008.9 0.0
21/06:00am 20.4 18.3 8.1 45 6.5 SW 9 13 5 7 1009.9 1008.7 0.0
21/05:30am 20.5 17.8 7.5 43 6.8 SSW 11 15 6 8 1009.4 1008.2 0.0
21/05:00am 21.8 18.1 6.5 37 7.9 WSW 15 20 8 11 1009.0 1007.7 0.0
21/04:48am 26.4 23.8 13.2 44 7.9 N 19 28 10 15 1008.5 1007.3 0.0
21/04:30am 21.2 18.8 8.8 45 6.7 N 11 20 6 11 1008.6 1007.4 0.0
21/04:00am 20.5 18.6 9.1 48 6.2 WSW 9 11 5 6 1009.3 1008.1 0.0
21/03:30am 19.7 18.2 9.3 51 5.6 WSW 7 7 4 4 1008.9 1007.6 0.0
21/03:00am 19.7 18.2 9.3 51 5.6 SW 7 9 4 5 1009.0 1007.7 0.0
21/02:30am 19.2 17.5 8.5 50 5.7 SW 7 9 4 5 1009.1 1007.9 0.0
21/02:00am 19.5 17.7 7.3 45 6.3 SSW 6 7 3 4 1009.3 1008.1 0.0
21/01:30am 21.0 19.2 8.0 43 6.9 S 7 7 4 4 1009.6 1008.4 0.0
21/01:00am 20.9 19.9 7.2 41 7.2 NE 2 7 1 4 1009.8 1008.6 0.0
21/12:30am 22.0 20.7 7.8 40 7.5 N 4 9 2 5 1010.1 1008.9 0.0
21/12:00am 22.3 20.1 7.7 39 7.8 WSW 9 13 5 7 1010.5 1009.3 0.0
 
Date/Time
EDT
Temp
°C
App
Temp
°C
Dew
Point
Rel
Hum
%
Delta-T
°C
Wind Press
QNH
hPa
Press
MSL
hPa
Rain
since 9 am
mm
Dir
 
Spd
km/h
Gust
km/h
Spd
kts
Gust
kts
20/11:30pm 21.8 19.3 6.5 37 7.9 N 9 9 5 5 1010.6 1009.4 0.0
20/11:00pm 24.5 21.8 7.2 33 9.2 N 11 13 6 7 1010.7 1009.5 0.0
20/10:30pm 23.6 20.8 6.8 34 8.8 NNW 11 13 6 7 1010.8 1009.6 0.0
20/10:00pm 25.0 22.6 7.2 32 9.5 W 9 11 5 6 1010.8 1009.6 0.0
20/09:30pm 24.7 22.2 6.4 31 9.6 NNW 9 11 5 6 1010.6 1009.4 0.0
20/09:00pm 26.2 23.0 6.8 29 10.4 NW 13 15 7 8 1010.4 1009.2 0.0
20/08:30pm 28.3 25.0 6.4 25 11.8 NW 13 15 7 8 1010.1 1008.9 0.0
20/08:00pm 30.2 26.7 7.4 24 12.6 NW 15 22 8 12 1009.8 1008.6 0.0
20/07:30pm 31.5 28.2 7.9 23 13.2 NW 15 19 8 10 1009.6 1008.4 0.0
20/07:00pm 32.5 28.8 8.0 22 13.8 NW 17 20 9 11 1009.3 1008.1 0.0
20/06:30pm 33.0 28.9 8.5 22 13.9 WNW 20 30 11 16 1009.0 1007.7 0.0
20/06:00pm 34.0 28.7 8.6 21 14.6 WNW 26 37 14 20 1008.6 1007.4 0.0
20/05:30pm 33.9 28.5 7.8 20 14.7 NNW 26 33 14 18 1008.6 1007.4 0.0
20/05:00pm 34.1 29.1 8.0 20 14.8 NW 24 32 13 17 1008.9 1007.6 0.0
20/04:30pm 34.2 29.8 7.3 19 15.1 NNW 20 37 11 20 1009.1 1007.9 0.0
20/04:00pm 34.3 30.3 6.6 18 15.4 NNW 17 26 9 14 1009.4 1008.2 0.0
20/03:30pm 35.4 30.3 7.5 18 15.8 N 24 30 13 16 1010.0 1008.8 0.0
20/03:00pm 33.9 30.7 8.5 21 14.5 NNW 15 28 8 15 1010.5 1009.3 0.0
20/02:30pm 34.4 30.8 8.2 20 14.9 NNW 17 35 9 19 1011.0 1009.8 0.0
20/02:00pm 34.7 29.4 6.9 18 15.6 NNW 24 41 13 22 1011.4 1010.3 0.0
20/01:30pm 34.5 30.5 6.7 18 15.5 NNW 17 33 9 18 1012.1 1010.9 0.0
20/01:00pm 33.6 30.7 10.9 25 13.4 N 17 30 9 16 1012.7 1011.5 0.0
20/12:30pm 31.8 31.1 13.1 32 11.4 SSE 9 20 5 11 1013.4 1012.2 0.0
20/12:00pm 31.8 30.7 14.4 34 10.8 NW 13 26 7 14 1013.9 1012.8 0.0
20/11:30am 30.2 31.0 15.9 42 9.0 SE 6 11 3 6 1014.6 1013.4 0.0
20/11:00am 28.0 28.1 15.6 46 7.7 SSE 9 13 5 7 1015.3 1014.1 0.0
20/10:30am 26.3 26.6 16.0 53 6.4 S 9 13 5 7 1015.7 1014.5 0.0
20/10:00am 25.1 26.3 16.8 60 5.2 NNE 6 9 3 5 1016.1 1015.0 0.0
20/09:30am 22.9 23.9 16.9 69 3.7 SE 7 11 4 6 1016.4 1015.3 0.0
20/09:00am 19.6 20.4 16.4 82 2.0 S 7 9 4 5 1016.9 1015.8 0.0
20/08:59am 19.8 20.7 16.6 82 2.0 S 7 9 4 5 1016.9 1015.8 0.0
20/08:30am 17.6 18.8 17.4 99 0.1 ESE 7 11 4 6 1017.1 1016.0 0.0
20/08:00am 16.8 17.7 16.6 99 0.1 ESE 7 11 4 6 1017.1 1016.0 0.0
20/07:30am 16.2 18.2 16.0 99 0.1 CALM 0 0 0 0 1017.0 1015.9 0.0
20/07:00am 15.8 17.6 15.6 99 0.1 CALM 0 0 0 0 1017.1 1016.0 0.0
20/06:30am 15.8 16.5 15.6 99 0.1 ENE 6 7 3 4 1017.0 1015.9 0.0
20/06:00am 15.7 17.1 15.5 99 0.1 ENE 2 9 1 5 1017.1 1016.0 0.0
20/05:30am 15.6 16.0 15.4 99 0.1 ENE 7 9 4 5 1016.8 1015.7 0.0
20/05:00am 15.3 17.0 15.1 99 0.1 CALM 0 0 0 0 1016.6 1015.5 0.0
20/04:30am 13.8 14.9 13.6 99 0.1 CALM 0 0 0 0 1016.3 1015.2 0.0
20/04:18am 13.4 14.4 13.2 99 0.1 CALM 0 0 0 0 1016.2 1015.1 0.0
20/04:00am 13.4 14.4 13.2 99 0.1 CALM 0 0 0 0 1016.1 1015.0 0.0
20/03:30am 13.9 15.1 13.7 99 0.1 CALM 0 0 0 0 1016.2 1015.1 0.0
20/03:00am 14.0 14.1 13.8 99 0.1 ENE 6 7 3 4 1016.3 1015.2 0.0
20/02:30am 14.0 14.0 13.7 98 0.2 ENE 6 7 3 4 1016.4 1015.3 0.0
20/02:00am 15.1 15.6 14.9 99 0.1 ENE 6 9 3 5 1016.7 1015.6 0.0
20/01:30am 14.7 14.4 14.4 98 0.2 NE 9 11 5 6 1017.1 1016.0 0.0
20/01:00am 14.6 15.4 13.8 95 0.5 ENE 2 6 1 3 1017.3 1016.1 0.0
20/12:30am 15.4 15.7 14.4 94 0.6 E 6 9 3 5 1017.3 1016.1 0.0
20/12:04am 16.5 17.1 15.7 95 0.5 E 7 9 4 5 1017.5 1016.3 0.0
20/12:00am 16.4 16.8 15.3 93 0.6 E 7 9 4 5 1017.5 1016.3 0.0
 
Date/Time
EDT
Temp
°C
App
Temp
°C
Dew
Point
Rel
Hum
%
Delta-T
°C
Wind Press
QNH
hPa
Press
MSL
hPa
Rain
since 9 am
mm
Dir
 
Spd
km/h
Gust
km/h
Spd
kts
Gust
kts
19/11:49pm 16.7 16.9 15.7 94 0.6 E 9 13 5 7 1017.4 1016.2 0.0
19/11:30pm 16.7 16.4 15.4 92 0.8 E 11 13 6 7 1017.6 1016.4 0.0
19/11:00pm 17.5 17.3 15.7 89 1.1 E 11 17 6 9 1017.0 1015.9 0.0
19/10:30pm 18.2 16.8 15.6 85 1.6 E 17 20 9 11 1016.9 1015.8 0.0
19/10:00pm 18.5 16.8 15.7 84 1.7 ESE 19 24 10 13 1016.8 1015.7 0.0
19/09:30pm 18.8 17.0 15.5 81 2.0 E 19 28 10 15 1016.7 1015.6 0.0
19/09:00pm 19.5 18.0 15.4 77 2.5 E 17 26 9 14 1016.6 1015.5 0.0
19/08:30pm 20.3 18.4 15.3 73 3.0 E 19 26 10 14 1016.3 1015.2 0.0
19/08:00pm 21.0 19.6 14.6 67 3.8 E 15 22 8 12 1016.0 1014.8 0.0
19/07:30pm 22.3 19.4 13.9 59 5.0 E 22 33 12 18 1015.7 1014.5 0.0
19/07:00pm 24.5 21.4 13.4 50 6.6 E 22 33 12 18 1015.4 1014.2 0.0
19/06:30pm 26.4 22.5 12.1 41 8.4 E 24 30 13 16 1015.1 1013.9 0.0
19/06:00pm 27.7 24.3 10.4 34 9.9 ESE 19 28 10 15 1015.1 1013.9 0.0
19/05:30pm 28.2 24.6 10.4 33 10.2 ESE 20 28 11 15 1015.2 1014.0 0.0
19/05:00pm 27.8 24.1 9.6 32 10.3 ESE 19 35 10 19 1015.4 1014.2 0.0
19/04:30pm 28.6 24.9 9.3 30 10.9 ESE 19 26 10 14 1015.7 1014.5 0.0
19/04:00pm 28.4 25.0 9.2 30 10.8 SE 17 24 9 13 1015.8 1014.6 0.0
19/03:30pm 27.8 24.9 8.1 29 10.9 SE 13 17 7 9 1016.4 1015.3 0.0
19/03:00pm 28.4 26.0 8.7 29 11.0 ENE 11 17 6 9 1016.9 1015.8 0.0
19/02:30pm 28.4 24.5 9.6 31 10.7 ESE 20 28 11 15 1017.4 1016.2 0.0
19/02:00pm 28.6 25.6 10.8 33 10.3 E 17 26 9 14 1017.9 1016.7 0.0
19/01:30pm 27.4 25.8 10.2 34 9.8 NE 9 13 5 7 1018.5 1017.4 0.0
19/01:00pm 27.5 23.5 11.9 38 9.1 SE 24 28 13 15 1019.0 1017.9 0.0
19/12:30pm 25.1 22.1 12.0 44 7.6 ESE 19 26 10 14 1019.5 1018.4 0.0
19/12:00pm 25.6 22.7 12.4 43 7.7 E 19 30 10 16 1019.8 1018.7 0.0
19/11:30am 25.3 23.0 12.9 46 7.3 E 17 26 9 14 1020.4 1019.2 0.0
19/11:00am 24.5 21.3 13.1 49 6.7 ESE 22 33 12 18 1020.8 1019.7 0.0
19/10:30am 22.4 19.7 12.9 55 5.5 E 19 32 10 17 1021.1 1020.0 0.0
19/10:00am 21.0 17.6 12.4 58 4.9 ESE 22 33 12 18 1021.6 1020.5 0.0
19/09:30am 19.4 16.4 12.4 64 4.0 ESE 20 28 11 15 1021.6 1020.5 0.0
19/09:00am 19.9 16.7 13.1 65 3.9 E 22 32 12 17 1021.7 1020.6 0.0
19/08:30am 18.6 15.9 13.0 70 3.2 E 19 30 10 16 1021.7 1020.6 0.0
19/08:00am 17.7 15.0 12.8 73 2.8 ESE 19 28 10 15 1021.6 1020.5 0.0
19/07:30am 16.7 15.4 12.5 76 2.4 E 11 15 6 8 1021.5 1020.4 0.0
19/07:00am 16.2 15.8 12.9 81 1.9 E 7 9 4 5 1021.4 1020.3 0.0
19/06:30am 13.7 12.9 11.7 88 1.1 ENE 7 9 4 5 1021.1 1020.0 0.0
19/06:00am 12.6 11.5 10.8 89 1.0 ENE 7 11 4 6 1020.9 1019.8 0.0
19/05:30am 12.9 11.8 10.8 87 1.1 ENE 7 13 4 7 1020.6 1019.4 0.0
19/05:00am 12.8 11.7 10.5 86 1.2 ENE 7 9 4 5 1020.5 1019.3 0.0
19/04:30am 12.6 11.3 10.1 85 1.3 ENE 7 11 4 6 1020.3 1019.1 0.0
19/04:00am 12.2 10.8 9.0 81 1.6 ENE 6 9 3 5 1020.2 1019.0 0.0
19/03:30am 13.0 11.6 9.4 79 1.9 E 7 9 4 5 1020.1 1018.9 0.0
19/03:00am 13.5 11.8 9.7 78 2.0 E 9 13 5 7 1019.8 1018.7 0.0
19/02:30am 13.7 11.8 10.5 81 1.7 E 11 15 6 8 1019.9 1018.8 0.0
19/02:00am 13.7 12.1 10.3 80 1.8 E 9 13 5 7 1020.2 1019.0 0.0
19/01:30am 14.0 12.3 10.0 77 2.1 E 9 13 5 7 1020.3 1019.1 0.0
19/01:00am 14.7 13.6 10.5 76 2.2 ENE 7 11 4 6 1020.5 1019.3 0.0
19/12:30am 15.2 13.3 10.6 74 2.5 ENE 11 15 6 8 1020.4 1019.2 0.0
19/12:00am 16.3 14.5 11.0 71 2.9 ENE 11 13 6 7 1020.4 1019.2 0.0
 
Date/Time
EDT
Temp
°C
App
Temp
°C
Dew
Point
Rel
Hum
%
Delta-T
°C
Wind Press
QNH
hPa
Press
MSL
hPa
Rain
since 9 am
mm
Dir
 
Spd
km/h
Gust
km/h
Spd
kts
Gust
kts
18/11:30pm 16.8 14.9 10.6 67 3.4 E 11 17 6 9 1020.4 1019.2 0.0
18/11:00pm 17.6 15.8 10.7 64 3.8 E 11 15 6 8 1020.4 1019.2 0.0
18/10:30pm 18.4 16.1 10.5 60 4.3 E 13 24 7 13 1020.1 1018.9 0.0
18/10:00pm 19.1 16.3 10.1 56 4.9 E 15 19 8 10 1019.7 1018.6 0.0
18/09:30pm 20.1 16.3 11.3 57 4.9 ESE 22 30 12 16 1019.3 1018.2 0.0
18/09:00pm 20.8 17.1 11.4 55 5.3 ESE 22 32 12 17 1018.6 1017.5 0.0
18/08:30pm 21.8 17.6 11.2 51 6.0 E 24 35 13 19 1017.7 1016.5 0.0
18/08:00pm 23.3 18.8 -0.2 21 10.8 S 13 15 7 8 1016.7 1015.6 0.0
18/07:30pm 26.2 21.7 0.0 18 12.4 S 13 17 7 9 1016.1 1015.0 0.0
18/07:00pm 28.2 24.3 0.9 17 13.3 SSW 11 15 6 8 1015.6 1014.4 0.0
18/06:30pm 28.9 24.4 -0.3 15 14.0 SSW 13 20 7 11 1015.3 1014.1 0.0
18/06:00pm 29.4 25.6 -0.9 14 14.4 SSW 9 13 5 7 1015.1 1013.9 0.0
18/05:30pm 30.8 26.2 -0.8 13 15.2 WSW 13 24 7 13 1015.0 1013.8 0.0
18/05:00pm 29.7 24.8 -0.6 14 14.5 S 15 20 8 11 1014.8 1013.6 0.0
18/04:30pm 30.3 25.3 -1.2 13 15.0 W 15 28 8 15 1014.8 1013.6 0.0
18/04:00pm 30.4 25.6 -0.1 14 14.8 SW 15 26 8 14 1015.0 1013.8 0.0
18/03:30pm 30.1 24.7 -1.3 13 14.9 SSW 17 24 9 13 1015.1 1013.9 0.0
18/03:00pm 29.7 23.9 -1.6 13 14.8 SW 19 30 10 16 1015.4 1014.2 0.0
18/02:30pm 29.5 24.9 -0.8 14 14.5 SSW 13 30 7 16 1015.6 1014.4 0.0
18/02:00pm 29.0 24.3 0.7 16 13.8 SW 15 28 8 15 1015.8 1014.6 0.0
18/01:30pm 28.1 24.4 2.3 19 12.9 SW 11 17 6 9 1016.2 1015.1 0.0
18/01:00pm 26.8 22.6 4.0 23 11.6 WSW 15 20 8 11 1016.8 1015.7 0.0
18/12:30pm 26.4 23.4 4.2 24 11.3 WSW 9 17 5 9 1017.0 1015.9 0.0
18/12:00pm 25.0 21.0 4.7 27 10.4 NNW 15 24 8 13 1017.6 1016.4 0.0
18/11:30am 25.3 22.1 5.0 27 10.4 NNE 11 15 6 8 1018.0 1016.8 0.0
18/11:00am 23.8 20.9 6.6 33 9.0 SW 11 20 6 11 1018.3 1017.1 0.0
18/10:30am 22.8 20.5 5.7 33 8.8 SW 7 13 4 7 1018.4 1017.3 0.0
18/10:00am 22.6 20.8 8.0 39 7.8 E 7 11 4 6 1018.4 1017.3 0.0
18/09:30am 20.9 19.0 8.9 46 6.5 SSE 9 15 5 8 1018.3 1017.1 0.0
18/09:00am 20.0 18.8 9.6 51 5.6 S 6 11 3 6 1018.3 1017.1 0.0
18/08:30am 19.2 17.6 10.2 56 4.9 E 9 13 5 7 1018.3 1017.1 0.0
18/08:00am 18.3 16.8 10.4 60 4.3 ENE 9 13 5 7 1018.3 1017.1 0.0
18/07:30am 17.1 16.4 8.5 57 4.5 S 2 7 1 4 1018.0 1016.8 0.0

Other Formats:

Comma delimited format used in spreadsheet applications
http://www.bom.gov.au/fwo/IDN60801/IDN60801.95754.axf

JavaScript Object Notation format (JSON) in row-major order
http://www.bom.gov.au/fwo/IDN60801/IDN60801.95754.json